createdAt,value
2019-05-30T00:00:11.309Z,3.50
2019-05-30T00:02:29.219Z,3.40
2019-05-30T00:04:57.958Z,4.00
2019-05-30T00:07:24.396Z,4.32
2019-05-30T00:09:54.247Z,4.03
2019-05-30T00:12:21.490Z,4.10
2019-05-30T00:14:49.060Z,3.80
2019-05-30T00:17:16.931Z,3.93
2019-05-30T00:19:44.583Z,3.60
2019-05-30T00:22:13.160Z,4.55
2019-05-30T00:24:40.766Z,3.87
2019-05-30T00:27:09.106Z,4.00
2019-05-30T00:29:36.679Z,3.50
2019-05-30T00:32:04.931Z,3.73
2019-05-30T00:34:31.879Z,3.73
2019-05-30T00:36:59.890Z,3.10
2019-05-30T00:39:27.343Z,3.47
2019-05-30T00:41:56.028Z,4.32
2019-05-30T00:44:23.288Z,4.27
2019-05-30T00:46:50.875Z,3.50
2019-05-30T00:49:18.449Z,3.73
2019-05-30T00:51:46.076Z,3.70
2019-05-30T00:54:13.652Z,3.63
2019-05-30T00:56:41.993Z,4.62
2019-05-30T00:59:09.615Z,3.93
2019-05-30T01:01:37.189Z,4.97
2019-05-30T01:04:05.010Z,4.10
2019-05-30T01:06:32.357Z,3.80
2019-05-30T01:09:01.179Z,3.87
2019-05-30T01:11:28.347Z,4.30
2019-05-30T01:13:57.001Z,3.80
2019-05-30T01:16:23.499Z,4.50
2019-05-30T01:18:51.665Z,3.70
2019-05-30T01:21:19.251Z,4.80
2019-05-30T01:23:46.844Z,4.67
2019-05-30T01:26:15.172Z,3.87
2019-05-30T01:28:43.564Z,4.27
2019-05-30T01:31:11.747Z,4.00
2019-05-30T01:33:38.715Z,4.50
2019-05-30T01:36:07.936Z,4.57
2019-05-30T01:38:35.447Z,4.27
2019-05-30T01:41:04.159Z,4.73
2019-05-30T01:43:30.676Z,4.82
2019-05-30T01:45:58.252Z,4.83
2019-05-30T01:48:25.826Z,5.05
2019-05-30T01:50:54.204Z,4.73
2019-05-30T01:53:22.546Z,4.23
2019-05-30T01:55:50.126Z,4.67
2019-05-30T01:58:17.729Z,5.43
2019-05-30T02:00:45.300Z,5.43
2019-05-30T02:03:12.926Z,4.50
2019-05-30T02:05:40.494Z,4.33
2019-05-30T02:08:10.162Z,4.77
2019-05-30T02:10:36.730Z,4.90
2019-05-30T02:13:05.453Z,4.80
2019-05-30T02:15:32.651Z,4.33
2019-05-30T02:18:01.468Z,4.43
2019-05-30T02:20:27.830Z,4.53
2019-05-30T02:22:55.401Z,4.57
2019-05-30T02:25:23.010Z,4.47
2019-05-30T02:27:50.582Z,4.20
2019-05-30T02:30:18.631Z,5.03
2019-05-30T02:32:46.200Z,4.97
2019-05-30T02:35:13.776Z,4.70
2019-05-30T02:37:41.387Z,4.47
2019-05-30T02:40:12.276Z,5.20
2019-05-30T02:42:36.545Z,4.70
2019-05-30T02:45:05.651Z,4.73
2019-05-30T02:47:31.749Z,4.50
2019-05-30T02:50:01.286Z,4.63
2019-05-30T02:52:26.897Z,4.73
2019-05-30T02:54:54.496Z,4.27
2019-05-30T02:57:22.083Z,4.80
2019-05-30T02:59:49.669Z,4.70
2019-05-30T03:02:17.912Z,4.97
2019-05-30T03:04:44.869Z,5.70
2019-05-30T03:07:13.059Z,4.67
2019-05-30T03:09:40.019Z,4.50
2019-05-30T03:12:09.069Z,4.50
2019-05-30T03:14:35.200Z,5.47
2019-05-30T03:17:04.783Z,5.07
2019-05-30T03:19:30.662Z,5.07
2019-05-30T03:21:58.330Z,4.40
2019-05-30T03:24:25.904Z,5.35
2019-05-30T03:26:53.486Z,5.23
2019-05-30T03:29:21.862Z,5.40
2019-05-30T03:31:50.230Z,5.67
2019-05-30T03:34:26.816Z,4.80
2019-05-30T03:36:45.413Z,5.00
2019-05-30T03:39:15.268Z,5.57
2019-05-30T03:41:40.550Z,4.83
2019-05-30T03:44:09.032Z,5.13
2019-05-30T03:46:41.487Z,4.93
2019-05-30T03:49:10.623Z,4.97
2019-05-30T03:51:36.765Z,5.00
2019-05-30T03:54:05.101Z,5.67
2019-05-30T03:56:40.598Z,6.05
2019-05-30T03:59:12.614Z,5.30
2019-05-30T04:01:53.856Z,5.47
2019-05-30T04:04:21.429Z,5.67
2019-05-30T04:06:49.015Z,6.60
2019-05-30T04:09:23.956Z,5.77
2019-05-30T04:11:52.835Z,5.50
2019-05-30T04:14:20.408Z,5.20
2019-05-30T04:16:48.018Z,5.27
2019-05-30T04:19:17.225Z,5.43
2019-05-30T04:21:43.933Z,5.40
2019-05-30T04:24:12.354Z,5.50
2019-05-30T04:26:39.876Z,6.10
2019-05-30T04:29:08.021Z,5.23
2019-05-30T04:31:35.327Z,5.83
2019-05-30T04:34:02.895Z,5.70
2019-05-30T04:36:31.279Z,5.37
2019-05-30T04:38:59.608Z,5.93
2019-05-30T04:41:27.177Z,5.30
2019-05-30T04:43:54.776Z,5.67
2019-05-30T04:46:23.138Z,6.30
2019-05-30T04:48:50.717Z,5.90
2019-05-30T04:51:20.838Z,6.10
2019-05-30T04:53:45.928Z,6.17
2019-05-30T04:56:14.603Z,6.05
2019-05-30T04:58:42.757Z,5.53
2019-05-30T05:01:11.020Z,5.50
2019-05-30T05:03:45.746Z,5.40
2019-05-30T05:06:05.434Z,6.00
2019-05-30T05:08:32.996Z,5.70
2019-05-30T05:11:00.566Z,5.23
2019-05-30T05:13:28.181Z,5.77
2019-05-30T05:15:56.514Z,5.80
2019-05-30T05:18:24.137Z,6.10
2019-05-30T05:20:51.718Z,5.87
2019-05-30T05:23:19.414Z,5.40
2019-05-30T05:25:59.695Z,5.83
2019-05-30T05:28:15.671Z,5.50
2019-05-30T05:30:42.094Z,6.07
2019-05-30T05:33:10.043Z,5.63
2019-05-30T05:35:37.621Z,6.80
2019-05-30T05:38:05.554Z,5.97
2019-05-30T05:40:33.126Z,6.37
2019-05-30T05:43:00.700Z,5.80
2019-05-30T05:45:28.841Z,6.23
2019-05-30T05:47:56.250Z,5.97
2019-05-30T05:50:24.613Z,6.30
2019-05-30T05:52:52.209Z,7.22
2019-05-30T05:55:20.876Z,5.73
2019-05-30T05:57:48.128Z,5.80
2019-05-30T06:00:16.832Z,5.83
2019-05-30T06:02:44.077Z,6.47
2019-05-30T06:05:11.702Z,5.90
2019-05-30T06:07:39.282Z,6.60
2019-05-30T06:10:06.853Z,5.50
2019-05-30T06:12:34.493Z,5.50
2019-05-30T06:15:02.492Z,5.93
2019-05-30T06:17:29.671Z,6.00
2019-05-30T06:19:58.435Z,5.83
2019-05-30T06:22:26.010Z,5.93
2019-05-30T06:24:53.596Z,5.70
2019-05-30T06:27:21.905Z,5.57
2019-05-30T06:29:48.775Z,5.57
2019-05-30T06:32:16.394Z,5.57
2019-05-30T06:34:43.970Z,5.47
2019-05-30T06:37:12.272Z,4.80
2019-05-30T06:39:39.162Z,4.80
2019-05-30T06:42:07.503Z,5.20
2019-05-30T06:44:35.102Z,4.77
2019-05-30T06:47:03.472Z,5.07
2019-05-30T06:49:31.143Z,5.37
2019-05-30T06:51:58.674Z,4.83
2019-05-30T06:54:27.728Z,4.60
2019-05-30T06:56:54.621Z,4.70
2019-05-30T06:59:23.378Z,4.80
2019-05-30T07:01:52.175Z,5.00
2019-05-30T07:04:18.635Z,4.90
2019-05-30T07:06:46.776Z,4.80
2019-05-30T07:09:14.131Z,4.57
2019-05-30T07:11:41.744Z,4.37
2019-05-30T07:14:10.489Z,4.23
2019-05-30T07:16:38.071Z,3.80
2019-05-30T07:19:06.529Z,4.33
2019-05-30T07:21:34.624Z,4.47
2019-05-30T07:24:02.192Z,4.60
2019-05-30T07:26:29.887Z,3.77
2019-05-30T07:29:00.553Z,4.50
2019-05-30T07:31:26.057Z,3.83
2019-05-30T07:33:52.565Z,3.30
2019-05-30T07:36:20.952Z,3.70
2019-05-30T07:38:49.291Z,4.20
2019-05-30T07:41:16.867Z,4.57
2019-05-30T07:43:44.484Z,3.93
2019-05-30T07:46:12.057Z,3.60
2019-05-30T07:48:39.674Z,3.43
2019-05-30T07:51:08.017Z,3.20
2019-05-30T07:53:35.584Z,3.50
2019-05-30T07:56:03.213Z,3.63
2019-05-30T07:58:31.128Z,4.22
2019-05-30T08:00:58.361Z,4.20
2019-05-30T08:03:26.852Z,3.90
2019-05-30T08:05:54.439Z,3.40
2019-05-30T08:08:22.777Z,3.50
2019-05-30T08:10:50.439Z,2.97
2019-05-30T08:13:18.020Z,3.10
2019-05-30T08:15:45.594Z,2.50
2019-05-30T08:18:13.766Z,2.83
2019-05-30T08:20:41.343Z,2.87
2019-05-30T08:23:10.116Z,2.40
2019-05-30T08:25:38.506Z,2.77
2019-05-30T08:28:06.044Z,2.60
2019-05-30T08:30:34.554Z,3.07
2019-05-30T08:33:02.008Z,2.70
2019-05-30T08:35:39.200Z,3.30
2019-05-30T08:37:57.964Z,3.20
2019-05-30T08:40:26.308Z,2.80
2019-05-30T08:42:53.897Z,2.70
2019-05-30T08:45:22.274Z,3.12
2019-05-30T08:47:50.624Z,2.53
2019-05-30T08:50:18.313Z,2.67
2019-05-30T08:52:46.664Z,2.60
2019-05-30T08:55:14.276Z,2.57
2019-05-30T08:57:41.869Z,2.40
2019-05-30T09:00:09.448Z,2.37
2019-05-30T09:02:37.329Z,3.37
2019-05-30T09:05:07.638Z,2.67
2019-05-30T09:07:36.408Z,2.90
2019-05-30T09:10:03.195Z,3.20
2019-05-30T09:12:30.799Z,2.30
2019-05-30T09:14:58.395Z,2.40
2019-05-30T09:17:26.027Z,2.67
2019-05-30T09:19:53.614Z,2.83
2019-05-30T09:22:23.939Z,2.60
2019-05-30T09:24:52.238Z,2.63
2019-05-30T09:27:19.823Z,3.33
2019-05-30T09:29:48.366Z,3.20
2019-05-30T09:32:15.808Z,3.30
2019-05-30T09:34:44.811Z,3.20
2019-05-30T09:37:10.971Z,2.77
2019-05-30T09:39:39.128Z,2.97
2019-05-30T09:42:06.205Z,3.60
2019-05-30T09:44:34.558Z,3.37
2019-05-30T09:47:02.161Z,3.70
2019-05-30T09:49:30.518Z,3.10
2019-05-30T09:51:58.173Z,3.40
2019-05-30T09:54:25.803Z,2.70
2019-05-30T09:56:57.011Z,2.93
2019-05-30T09:59:21.031Z,3.33
2019-05-30T10:01:50.023Z,2.70
2019-05-30T10:04:16.258Z,2.80
2019-05-30T10:06:44.663Z,3.30
2019-05-30T10:09:11.802Z,2.83
2019-05-30T10:11:39.408Z,3.03
2019-05-30T10:14:07.813Z,3.00
2019-05-30T10:16:35.428Z,3.50
2019-05-30T10:19:02.993Z,3.10
2019-05-30T10:21:30.611Z,3.00
2019-05-30T10:23:58.210Z,2.73
2019-05-30T10:26:25.888Z,2.97
2019-05-30T10:28:53.492Z,3.35
2019-05-30T10:31:21.104Z,2.80
2019-05-30T10:33:49.406Z,2.70
2019-05-30T10:36:19.717Z,2.70
2019-05-30T10:38:43.886Z,3.00
2019-05-30T10:41:11.512Z,2.50
2019-05-30T10:43:39.107Z,2.37
2019-05-30T10:46:06.702Z,2.50
2019-05-30T10:48:34.332Z,2.80
2019-05-30T10:51:01.912Z,5.90
2019-05-30T10:53:30.264Z,5.85
2019-05-30T10:55:57.894Z,2.20
2019-05-30T10:58:25.469Z,2.20
2019-05-30T11:00:53.747Z,2.00
2019-05-30T11:03:20.682Z,1.97
2019-05-30T11:05:55.030Z,2.20
2019-05-30T11:08:21.876Z,1.93
2019-05-30T11:10:50.599Z,1.70
2019-05-30T11:13:17.088Z,1.90
2019-05-30T11:15:44.671Z,2.07
2019-05-30T11:18:12.290Z,1.83
2019-05-30T11:20:40.058Z,1.90
2019-05-30T11:23:08.541Z,1.57
2019-05-30T11:25:36.161Z,1.80
2019-05-30T11:28:04.514Z,1.70
2019-05-30T11:30:32.101Z,1.80
2019-05-30T11:33:00.511Z,1.90
2019-05-30T11:35:28.097Z,2.27
2019-05-30T11:37:55.676Z,2.23
2019-05-30T11:40:23.331Z,2.10
2019-05-30T11:42:51.240Z,2.17
2019-05-30T11:45:18.495Z,2.13
2019-05-30T11:47:46.892Z,2.10
2019-05-30T11:50:14.475Z,2.13
2019-05-30T11:52:42.058Z,1.90
2019-05-30T11:55:09.697Z,2.07
2019-05-30T11:57:37.293Z,2.10
2019-05-30T12:00:07.544Z,2.00
2019-05-30T12:02:35.945Z,2.10
2019-05-30T12:05:03.537Z,2.10
2019-05-30T12:07:36.529Z,2.07
2019-05-30T12:09:59.003Z,2.10
2019-05-30T12:12:26.330Z,2.20
2019-05-30T12:14:55.190Z,2.20
2019-05-30T12:17:21.551Z,2.40
2019-05-30T12:19:49.126Z,2.00
2019-05-30T12:22:16.724Z,2.00
2019-05-30T12:24:45.594Z,2.20
2019-05-30T12:27:13.189Z,1.93
2019-05-30T12:29:40.772Z,2.50
2019-05-30T12:32:08.398Z,2.00
2019-05-30T12:34:36.744Z,2.00
2019-05-30T12:37:04.328Z,1.80
2019-05-30T12:39:32.331Z,1.97
2019-05-30T12:42:01.213Z,1.80
2019-05-30T12:44:27.835Z,1.97
2019-05-30T12:46:55.570Z,2.20
2019-05-30T12:49:23.920Z,1.40
2019-05-30T12:51:51.563Z,1.27
2019-05-30T12:54:19.163Z,1.20
2019-05-30T12:56:47.241Z,1.43
2019-05-30T12:59:14.871Z,1.40
2019-05-30T13:01:42.458Z,1.43
2019-05-30T13:04:10.040Z,1.43
2019-05-30T13:06:37.707Z,1.37
2019-05-30T13:09:05.671Z,1.53
2019-05-30T13:11:33.238Z,1.87
2019-05-30T13:14:00.865Z,1.33
2019-05-30T13:16:28.513Z,1.63
2019-05-30T13:18:56.154Z,1.50
2019-05-30T13:21:23.741Z,1.23
2019-05-30T13:23:51.383Z,1.33
2019-05-30T13:26:19.027Z,1.30
2019-05-30T13:28:47.036Z,1.43
2019-05-30T13:31:14.622Z,1.37
2019-05-30T13:33:42.283Z,1.30
2019-05-30T13:36:09.940Z,1.43
2019-05-30T13:38:37.784Z,1.60
2019-05-30T13:41:05.668Z,1.70
2019-05-30T13:43:33.799Z,1.60
2019-05-30T13:46:02.861Z,1.30
2019-05-30T13:48:29.048Z,1.10
2019-05-30T13:50:58.567Z,1.00
2019-05-30T13:53:25.840Z,1.40
2019-05-30T13:55:53.466Z,1.10
2019-05-30T13:58:21.833Z,0.93
2019-05-30T14:00:49.539Z,1.10
2019-05-30T14:03:17.836Z,1.03
2019-05-30T14:05:45.431Z,1.00
2019-05-30T14:08:21.169Z,1.00
2019-05-30T14:10:48.864Z,1.20
2019-05-30T14:13:16.397Z,1.00
2019-05-30T14:15:47.250Z,0.90
2019-05-30T14:18:14.839Z,1.03
2019-05-30T14:20:42.426Z,1.10
2019-05-30T14:23:10.094Z,1.00
2019-05-30T14:25:37.682Z,0.90
2019-05-30T14:28:05.693Z,0.90
2019-05-30T14:30:32.878Z,1.08
2019-05-30T14:33:01.988Z,1.20
2019-05-30T14:35:28.150Z,1.20
2019-05-30T14:37:55.707Z,0.90
2019-05-30T14:40:23.320Z,1.23
2019-05-30T14:42:50.951Z,1.33
2019-05-30T14:45:19.312Z,1.23
2019-05-30T14:47:46.898Z,1.00
2019-05-30T14:50:14.587Z,1.17
2019-05-30T14:52:42.170Z,1.07
2019-05-30T14:55:10.955Z,1.00
2019-05-30T14:57:37.446Z,1.23
2019-05-30T15:00:07.379Z,1.00
2019-05-30T15:02:33.454Z,1.33
2019-05-30T15:05:01.088Z,1.40
2019-05-30T15:07:28.671Z,1.92
2019-05-30T15:09:56.276Z,1.90
2019-05-30T15:12:24.706Z,1.27
2019-05-30T15:14:53.055Z,2.00
2019-05-30T15:17:20.641Z,1.20
2019-05-30T15:19:48.491Z,1.10
2019-05-30T15:22:18.382Z,1.03
2019-05-30T15:24:44.301Z,1.10
2019-05-30T15:27:12.694Z,1.00
2019-05-30T15:29:40.272Z,1.07
2019-05-30T15:32:08.190Z,1.20
2019-05-30T15:34:35.480Z,1.00
2019-05-30T15:37:03.074Z,0.70
2019-05-30T15:39:32.812Z,0.90
2019-05-30T15:41:58.290Z,0.90
2019-05-30T15:44:25.873Z,0.80
2019-05-30T15:46:53.506Z,0.90
2019-05-30T15:49:21.086Z,1.00
2019-05-30T15:51:48.666Z,0.77
2019-05-30T15:54:17.136Z,0.77
2019-05-30T15:56:44.242Z,0.90
2019-05-30T15:59:11.819Z,0.67
2019-05-30T16:01:39.447Z,0.80
2019-05-30T16:04:07.799Z,0.67
2019-05-30T16:06:35.403Z,0.77
2019-05-30T16:09:03.779Z,0.67
2019-05-30T16:11:31.367Z,0.80
2019-05-30T16:13:59.001Z,0.83
2019-05-30T16:16:39.461Z,0.87
2019-05-30T16:18:55.005Z,0.70
2019-05-30T16:21:22.635Z,0.70
2019-05-30T16:23:50.223Z,0.90
2019-05-30T16:26:17.965Z,0.70
2019-05-30T16:28:45.492Z,0.73
2019-05-30T16:31:13.874Z,0.90
2019-05-30T16:33:41.448Z,1.00
2019-05-30T16:36:09.683Z,0.73
2019-05-30T16:38:37.267Z,0.77
2019-05-30T16:41:05.623Z,0.90
2019-05-30T16:43:33.281Z,0.83
2019-05-30T16:46:00.852Z,1.13
2019-05-30T16:48:28.432Z,0.80
2019-05-30T16:50:56.051Z,0.67
2019-05-30T16:53:25.831Z,0.90
2019-05-30T16:55:51.309Z,0.90
2019-05-30T16:58:20.272Z,0.70
2019-05-30T17:00:47.236Z,0.80
2019-05-30T17:03:15.665Z,0.90
2019-05-30T17:05:42.455Z,0.82
2019-05-30T17:08:10.052Z,0.87
2019-05-30T17:10:37.739Z,1.00
2019-05-30T17:13:05.320Z,1.00
2019-05-30T17:15:32.904Z,1.47
2019-05-30T17:18:00.542Z,1.40
2019-05-30T17:20:28.127Z,1.20
2019-05-30T17:22:55.703Z,1.30
2019-05-30T17:25:23.329Z,1.00
2019-05-30T17:27:50.909Z,1.10
2019-05-30T17:30:19.493Z,1.10
2019-05-30T17:32:46.563Z,1.30
2019-05-30T17:35:20.093Z,1.23
2019-05-30T17:37:48.004Z,1.10
2019-05-30T17:40:15.630Z,1.20
2019-05-30T17:42:43.294Z,1.23
2019-05-30T17:45:10.915Z,1.10
2019-05-30T17:47:38.489Z,0.90
2019-05-30T17:50:06.121Z,0.80
2019-05-30T17:52:33.701Z,1.10
2019-05-30T17:55:01.296Z,1.10
2019-05-30T17:57:30.222Z,1.00
2019-05-30T17:59:56.893Z,0.87
2019-05-30T18:02:24.477Z,0.90
2019-05-30T18:04:52.108Z,1.07
2019-05-30T18:07:20.808Z,1.00
2019-05-30T18:09:47.288Z,1.17
2019-05-30T18:12:14.916Z,1.07
2019-05-30T18:14:42.500Z,1.00
2019-05-30T18:17:10.094Z,1.10
2019-05-30T18:19:38.048Z,1.10
2019-05-30T18:22:05.695Z,0.90
2019-05-30T18:24:36.586Z,1.00
2019-05-30T18:27:04.245Z,1.10
2019-05-30T18:29:32.230Z,1.27
2019-05-30T18:32:00.197Z,1.10
2019-05-30T18:34:28.429Z,1.83
2019-05-30T18:36:55.436Z,1.27
2019-05-30T18:39:23.034Z,1.30
2019-05-30T18:41:50.994Z,1.30
2019-05-30T18:44:19.349Z,1.30
2019-05-30T18:46:46.940Z,1.50
2019-05-30T18:49:15.478Z,1.20
2019-05-30T18:51:43.020Z,1.17
2019-05-30T18:54:10.611Z,1.17
2019-05-30T18:56:38.248Z,1.10
2019-05-30T18:59:05.828Z,1.70
2019-05-30T19:01:33.750Z,1.57
2019-05-30T19:04:01.953Z,1.20
2019-05-30T19:06:29.996Z,1.03
2019-05-30T19:08:57.032Z,1.10
2019-05-30T19:11:33.154Z,1.45
2019-05-30T19:13:57.174Z,1.23
2019-05-30T19:16:26.226Z,1.13
2019-05-30T19:18:52.345Z,1.10
2019-05-30T19:21:19.971Z,1.07
2019-05-30T19:23:47.561Z,1.20
2019-05-30T19:26:15.146Z,0.80
2019-05-30T19:28:42.781Z,0.83
2019-05-30T19:31:11.184Z,0.93
2019-05-30T19:33:38.764Z,0.90
2019-05-30T19:36:06.700Z,1.07
2019-05-30T19:38:35.380Z,0.90
2019-05-30T19:41:02.385Z,0.77
2019-05-30T19:43:29.951Z,0.90
2019-05-30T19:45:58.300Z,0.90
2019-05-30T19:48:25.938Z,0.77
2019-05-30T19:50:53.519Z,0.87
2019-05-30T19:53:21.100Z,0.90
2019-05-30T19:55:49.548Z,1.00
2019-05-30T19:58:17.148Z,1.00
2019-05-30T20:00:57.761Z,0.77
2019-05-30T20:03:12.419Z,0.90
2019-05-30T20:05:40.952Z,0.90
2019-05-30T20:08:07.641Z,0.90
2019-05-30T20:10:35.253Z,0.80
2019-05-30T20:13:02.826Z,1.10
2019-05-30T20:15:33.317Z,0.80
2019-05-30T20:18:00.254Z,1.13
2019-05-30T20:20:27.852Z,0.80
2019-05-30T20:22:55.466Z,1.20
2019-05-30T20:25:23.058Z,0.90
2019-05-30T20:27:50.745Z,1.10
2019-05-30T20:30:19.101Z,0.80
2019-05-30T20:32:47.222Z,0.97
2019-05-30T20:35:15.099Z,1.10
2019-05-30T20:37:43.002Z,1.17
2019-05-30T20:40:10.266Z,1.30
2019-05-30T20:42:39.027Z,1.20
2019-05-30T20:45:06.642Z,1.10
2019-05-30T20:47:36.008Z,1.13
2019-05-30T20:50:01.519Z,1.20
2019-05-30T20:52:29.092Z,1.40
2019-05-30T20:54:56.676Z,1.10
2019-05-30T20:57:24.366Z,1.23
2019-05-30T20:59:51.951Z,1.10
2019-05-30T21:02:19.678Z,1.10
2019-05-30T21:04:47.574Z,1.30
2019-05-30T21:07:14.737Z,1.00
2019-05-30T21:09:42.375Z,1.00
2019-05-30T21:12:10.785Z,1.30
2019-05-30T21:14:39.527Z,1.00
2019-05-30T21:17:06.701Z,1.00
2019-05-30T21:19:34.290Z,1.10
2019-05-30T21:22:02.077Z,1.10
2019-05-30T21:24:29.522Z,1.53
2019-05-30T21:26:57.116Z,1.07
2019-05-30T21:29:24.696Z,1.10
2019-05-30T21:31:53.147Z,1.00
2019-05-30T21:34:21.446Z,1.20
2019-05-30T21:36:49.795Z,1.30
2019-05-30T21:39:17.486Z,1.23
2019-05-30T21:41:46.298Z,0.83
2019-05-30T21:44:12.658Z,1.20
2019-05-30T21:46:40.526Z,1.20
2019-05-30T21:49:08.640Z,1.23
2019-05-30T21:51:36.232Z,1.40
2019-05-30T21:54:04.629Z,1.20
2019-05-30T21:56:32.222Z,1.10
2019-05-30T21:59:00.733Z,1.17
2019-05-30T22:01:28.317Z,1.20
2019-05-30T22:03:56.668Z,1.10
2019-05-30T22:06:24.296Z,1.40
2019-05-30T22:08:51.881Z,1.40
2019-05-30T22:11:19.466Z,1.40
2019-05-30T22:13:47.862Z,1.53
2019-05-30T22:16:16.220Z,1.30
2019-05-30T22:18:44.120Z,1.40
2019-05-30T22:21:11.989Z,1.43
2019-05-30T22:23:39.571Z,1.30
2019-05-30T22:26:07.156Z,1.77
2019-05-30T22:28:34.802Z,1.10
2019-05-30T22:31:02.386Z,1.52
2019-05-30T22:33:29.981Z,1.20
2019-05-30T22:35:58.452Z,1.30
2019-05-30T22:38:26.037Z,1.40
2019-05-30T22:40:54.381Z,1.87
2019-05-30T22:43:25.341Z,1.63
2019-05-30T22:45:50.237Z,1.67
2019-05-30T22:48:17.178Z,1.27
2019-05-30T22:50:44.798Z,1.53
2019-05-30T22:53:12.382Z,1.43
2019-05-30T22:55:39.978Z,1.60
2019-05-30T22:58:08.370Z,1.60
2019-05-30T23:00:35.965Z,1.60
2019-05-30T23:03:03.548Z,1.70
2019-05-30T23:05:31.169Z,1.50
2019-05-30T23:07:58.751Z,1.80
2019-05-30T23:10:26.338Z,1.73
2019-05-30T23:12:54.099Z,1.50
2019-05-30T23:15:21.571Z,1.70
2019-05-30T23:17:50.302Z,1.47
2019-05-30T23:20:16.782Z,1.57
2019-05-30T23:22:44.369Z,1.40
2019-05-30T23:25:11.993Z,1.70
2019-05-30T23:27:39.576Z,1.40
2019-05-30T23:30:07.171Z,2.00
2019-05-30T23:32:35.537Z,1.90
2019-05-30T23:35:03.887Z,1.60
2019-05-30T23:37:31.518Z,2.80
2019-05-30T23:39:59.102Z,2.53
2019-05-30T23:42:26.684Z,1.90
2019-05-30T23:44:55.350Z,2.00
2019-05-30T23:47:21.965Z,2.47
2019-05-30T23:49:49.876Z,2.30
2019-05-30T23:52:17.091Z,1.90
2019-05-30T23:54:44.688Z,2.33
2019-05-30T23:57:12.266Z,1.80
2019-05-30T23:59:39.876Z,2.40
